Disclaimer

Please do not use the information listed here in-flight or in-navigation, as they are not provided to us by the airports but are provided by volunteers, so they might be outdated.

Search


Regions


Airport information page

No radio frequency information is available.

Airport informations:
Latitude: 31° 11' 52.35" N
Longitude: 121° 20' 10.75" E
Elevation: 10 feet - 3 meters
Operating hours: Remarks
Operating agency: Civil government, landing fees and diplomatic clearance may be required
Timezone: UTC+8
Fuel: Jet A1+, Jet A1 with icing inhibitor.

Runway information:
18/36 - 11154 x 190 feet< - >3400 x 58 meters

Recent METARs:
ZSSS 151200Z 33003MPS 6000 BKN005 OVC033 16/15 Q1020 BECMG TL1340 BKN004 OVC033
ZSSS 151200Z 33003MPS 6000 BKN005 OVC033 16/15 Q1020 BECMG TL1340 BKN004 OVC033
ZSSS 151230Z 33003MPS 6000 -RA BKN005 OVC033 15/15 Q1020 NOSIG

Airport on the map: